Time;durP1;ratioP1;P1;durP2;ratioP2;P2;SDS_P1;SDS_P2;PMS_P1;PMS_P2;Temp;Humidity;BMP_temperature;BMP_pressure;BME280_temperature;BME280_humidity;BME280_pressure;Samples;Min_cycle;Max_cycle;Signal;HPM_P1;HPM_P2
2021/07/11 00:00:08;;;;;;;0.70;0.40;;;23.70;69.10;;;23.13;52.90;100242.81;5026377;28;20029;-53
2021/07/11 00:02:34;;;;;;;1.27;0.40;;;23.60;69.40;;;23.07;52.62;100233.91;5024209;28;20053;-50
2021/07/11 00:05:01;;;;;;;3.60;0.60;;;23.60;69.60;;;23.06;52.78;100234.97;5028801;28;20029;-52
2021/07/11 00:07:29;;;;;;;3.25;0.50;;;23.60;69.60;;;23.05;53.04;100238.66;4993504;28;20041;-52
2021/07/11 00:09:57;;;;;;;2.15;0.47;;;23.50;69.80;;;23.08;52.96;100240.84;5016962;28;20045;-51
2021/07/11 00:12:24;;;;;;;2.65;0.40;;;23.60;69.80;;;23.09;52.67;100231.84;5010474;28;20092;-51
2021/07/11 00:14:51;;;;;;;3.05;0.50;;;23.50;69.80;;;23.12;52.61;100226.06;5018386;28;20056;-51
2021/07/11 00:17:20;;;;;;;2.05;0.50;;;23.60;69.70;;;23.07;53.00;100227.78;5027502;28;20033;-50
2021/07/11 00:19:46;;;;;;;1.15;0.40;;;23.60;69.80;;;23.07;52.90;100217.97;4994727;28;20037;-51
2021/07/11 00:22:12;;;;;;;2.15;0.50;;;23.60;70.00;;;23.05;52.89;100203.31;5024524;28;20048;-48
2021/07/11 00:24:40;;;;;;;10.75;0.57;;;23.60;70.10;;;23.08;52.55;100214.28;5028142;28;20493;-50
2021/07/11 00:27:07;;;;;;;4.72;0.55;;;23.50;70.10;;;23.15;52.51;100200.88;5002218;28;20433;-48
2021/07/11 00:29:34;;;;;;;1.63;0.40;;;23.60;69.90;;;23.20;52.27;100195.63;5009629;28;20037;-48
2021/07/11 00:32:00;;;;;;;2.17;0.52;;;23.60;69.90;;;23.26;52.41;100186.75;5027405;28;20041;-49
2021/07/11 00:34:26;;;;;;;0.70;0.40;;;23.70;69.70;;;23.35;51.68;100192.50;5024971;28;20034;-51
2021/07/11 00:36:54;;;;;;;0.52;0.30;;;23.70;69.40;;;23.46;51.36;100178.38;5027383;28;20037;-51
2021/07/11 00:39:19;;;;;;;0.52;0.30;;;23.90;69.00;;;23.41;51.55;100186.25;5026531;28;20116;-51
2021/07/11 00:41:46;;;;;;;1.75;0.40;;;23.90;68.80;;;23.35;51.80;100182.69;5022447;28;20176;-52
2021/07/11 00:44:14;;;;;;;4.00;0.65;;;23.90;69.00;;;23.21;52.10;100176.00;5009908;28;20117;-49
2021/07/11 00:46:45;;;;;;;0.80;0.40;;;23.70;69.20;;;23.16;51.93;100179.34;5023048;28;20030;-48
2021/07/11 00:49:14;;;;;;;3.35;0.40;;;23.70;69.50;;;23.15;52.31;100174.31;5027919;28;20033;-49
2021/07/11 00:51:42;;;;;;;2.05;0.40;;;23.60;69.60;;;23.09;52.03;100177.88;5026624;28;20033;-48
2021/07/11 00:54:08;;;;;;;1.90;0.45;;;23.60;69.80;;;23.10;52.20;100163.56;5007953;28;20081;-49
2021/07/11 00:56:34;;;;;;;1.88;0.40;;;23.60;69.80;;;23.11;52.00;100165.19;5020157;28;20524;-50
2021/07/11 00:59:03;;;;;;;0.70;0.40;;;23.60;69.90;;;23.22;51.47;100168.84;5025712;28;20650;-51
2021/07/11 01:01:43;;;;;;;1.40;0.30;;;23.70;69.70;;;23.20;51.99;100162.94;5023660;28;20040;-53
2021/07/11 01:04:27;;;;;;;6.32;0.50;;;23.60;69.60;;;23.09;52.34;100161.94;5027429;28;20430;-52
2021/07/11 01:06:59;;;;;;;1.13;0.40;;;23.60;70.00;;;23.04;52.46;100156.53;5022866;28;20431;-51
2021/07/11 01:09:35;;;;;;;2.17;0.47;;;23.60;70.30;;;23.00;52.54;100158.84;5010458;28;20033;-53
2021/07/11 01:12:08;;;;;;;1.63;0.40;;;23.50;70.40;;;23.12;51.99;100158.81;5022539;28;20037;-55
2021/07/11 01:14:36;;;;;;;0.60;0.40;;;23.60;70.40;;;23.15;52.14;100163.69;5017366;28;20037;-50
2021/07/11 01:17:05;;;;;;;0.50;0.40;;;23.60;70.10;;;23.17;51.87;100158.91;5006938;28;20138;-51
2021/07/11 01:19:49;;;;;;;0.68;0.40;;;23.60;69.80;;;23.23;51.91;100163.28;4973855;28;20049;-54
2021/07/11 01:22:19;;;;;;;2.33;0.40;;;23.70;69.80;;;23.01;52.72;100159.66;5012310;28;20048;-53
2021/07/11 01:25:07;;;;;;;1.73;0.40;;;23.60;70.20;;;23.01;52.42;100160.47;5027321;28;20053;-46
2021/07/11 01:27:34;;;;;;;3.80;0.70;;;23.50;70.50;;;23.24;51.74;100154.28;5008032;28;20068;-50
2021/07/11 01:30:03;;;;;;;10.65;0.75;;;23.60;70.10;;;23.52;51.07;100161.50;5004509;28;20045;-55
2021/07/11 01:32:29;;;;;;;2.85;0.40;;;23.80;69.40;;;23.55;50.14;100162.91;4994345;28;20041;-50
2021/07/11 01:35:00;;;;;;;0.90;0.30;;;24.00;69.00;;;23.59;50.58;100151.56;5009427;28;20033;-54
2021/07/11 01:37:29;;;;;;;0.82;0.30;;;24.00;68.80;;;23.75;49.69;100169.38;5005895;28;20040;-51
2021/07/11 01:39:56;;;;;;;4.20;0.43;;;24.10;68.30;;;23.73;50.01;100157.38;5027053;28;20493;-48
2021/07/11 01:42:22;;;;;;;1.48;0.40;;;24.20;68.10;;;23.65;50.38;100157.75;5008260;28;20438;-49
2021/07/11 01:44:50;;;;;;;0.63;0.30;;;24.10;68.20;;;23.59;50.01;100150.75;5022584;28;20033;-49
2021/07/11 01:47:16;;;;;;;0.75;0.40;;;24.10;68.30;;;23.51;50.46;100149.22;5005297;28;20036;-52
2021/07/11 01:49:43;;;;;;;2.67;0.35;;;24.00;68.30;;;23.58;50.24;100149.94;5008624;28;20053;-49
2021/07/11 01:52:10;;;;;;;0.60;0.30;;;24.10;68.50;;;23.55;49.96;100144.28;4995661;28;20337;-50
2021/07/11 01:54:37;;;;;;;0.80;0.30;;;24.00;68.30;;;23.58;50.25;100144.63;5007296;28;20236;-47
2021/07/11 01:57:05;;;;;;;5.65;0.68;;;24.00;68.20;;;23.61;50.00;100144.16;5016946;28;20038;-48
2021/07/11 01:59:32;;;;;;;2.15;0.28;;;24.00;68.10;;;23.60;49.72;100141.72;5021958;28;20029;-45
2021/07/11 02:01:58;;;;;;;1.33;0.30;;;24.00;68.10;;;23.61;49.97;100148.66;4994310;28;20042;-47
2021/07/11 02:04:24;;;;;;;1.20;0.40;;;24.00;68.20;;;23.48;50.53;100139.88;5026602;28;20044;-46
2021/07/11 02:06:53;;;;;;;0.80;0.30;;;24.00;68.40;;;23.47;49.97;100137.47;5009344;28;20441;-51
2021/07/11 02:09:19;;;;;;;0.50;0.30;;;23.90;68.40;;;23.48;49.88;100131.91;5022951;28;20511;-51
2021/07/11 02:11:45;;;;;;;1.20;0.30;;;23.90;68.40;;;23.52;49.74;100140.22;5026752;28;20443;-53
2021/07/11 02:14:16;;;;;;;3.05;0.30;;;24.00;68.40;;;23.61;49.54;100133.50;4992392;28;20140;-51
2021/07/11 02:16:48;;;;;;;2.53;0.30;;;24.00;68.00;;;23.61;49.61;100128.19;5025929;28;20036;-51
2021/07/11 02:19:20;;;;;;;0.45;0.30;;;24.00;68.00;;;23.49;50.32;100130.06;5026167;28;20346;-50
2021/07/11 02:21:46;;;;;;;1.75;0.28;;;24.00;68.20;;;23.38;50.61;100120.25;5027131;28;20040;-51
2021/07/11 02:24:17;;;;;;;0.80;0.50;;;23.90;68.50;;;23.24;51.01;100117.06;5021223;28;20117;-49
2021/07/11 02:26:44;;;;;;;2.47;0.35;;;23.80;69.10;;;23.16;51.03;100115.56;5026837;28;20039;-48
2021/07/11 02:29:11;;;;;;;0.80;0.30;;;23.70;69.40;;;23.13;51.52;100116.06;5006947;28;20474;-50
2021/07/11 02:31:42;;;;;;;1.55;0.40;;;23.60;69.50;;;23.10;51.48;100107.75;5008651;28;20026;-51
2021/07/11 02:34:14;;;;;;;1.90;0.40;;;23.60;70.10;;;23.00;52.23;100113.66;5017156;28;20124;-50
2021/07/11 02:36:47;;;;;;;3.28;0.77;;;23.60;70.60;;;22.92;52.22;100114.03;5008899;28;20056;-51
2021/07/11 02:39:17;;;;;;;4.18;0.50;;;23.50;70.70;;;;;;5025408;28;20053;-48
2021/07/11 02:42:00;;;;;;;0.43;0.20;;;23.60;69.90;;;23.25;50.85;100100.06;5026614;28;20045;-51
2021/07/11 02:44:28;;;;;;;0.57;0.30;;;23.70;69.40;;;23.25;51.35;100097.41;5015390;28;20041;-51
2021/07/11 02:47:11;;;;;;;1.75;0.50;;;23.70;69.40;;;23.00;52.55;100100.38;5008740;28;20445;-46
2021/07/11 02:49:42;;;;;;;2.38;0.30;;;23.60;70.50;;;22.83;52.75;100099.50;5021778;28;20041;-51
2021/07/11 02:52:09;;;;;;;0.90;0.40;;;23.40;71.40;;;22.75;52.40;100092.66;5029855;28;20025;-49
2021/07/11 02:55:04;;;;;;;3.22;0.30;;;23.30;71.00;;;22.63;53.87;100091.06;5028062;28;20057;-53
2021/07/11 02:57:33;;;;;;;3.55;0.30;;;23.20;71.70;;;22.43;53.40;100091.41;5001551;28;20070;-53
2021/07/11 03:00:00;;;;;;;2.20;0.30;;;23.00;72.10;;;22.58;52.88;100086.47;4998839;28;20052;-51
2021/07/11 03:02:27;;;;;;;1.08;0.30;;;23.10;72.10;;;22.63;52.77;100085.75;4992296;28;20496;-52
2021/07/11 03:04:54;;;;;;;2.28;0.30;;;23.10;71.80;;;22.58;52.84;100090.97;5008886;28;20038;-52
2021/07/11 03:07:20;;;;;;;0.93;0.30;;;23.10;72.10;;;22.66;52.27;100088.75;4991534;28;20034;-50
2021/07/11 03:09:47;;;;;;;1.02;0.30;;;23.10;71.80;;;22.61;52.78;100091.31;5010363;28;20139;-50
2021/07/11 03:12:15;;;;;;;0.82;0.30;;;23.10;71.90;;;22.65;52.86;100102.28;5008945;28;20061;-51
2021/07/11 03:14:41;;;;;;;2.53;0.35;;;23.10;72.00;;;22.60;52.82;100091.53;4991218;28;20457;-54
2021/07/11 03:17:08;;;;;;;0.85;0.30;;;23.10;72.30;;;22.54;53.24;100100.44;5009993;28;20073;-50
2021/07/11 03:19:41;;;;;;;2.25;0.30;;;23.00;72.50;;;22.46;54.04;100104.22;5008546;28;20084;-52
2021/07/11 03:22:07;;;;;;;0.95;0.50;;;23.00;72.80;;;22.35;54.29;100113.00;5009896;28;20074;-51
2021/07/11 03:24:36;;;;;;;4.38;0.32;;;22.90;73.40;;;22.33;54.05;100107.09;4990497;28;20096;-54
2021/07/11 03:27:04;;;;;;;1.33;0.30;;;22.80;73.80;;;22.22;55.04;100105.25;4992038;28;20026;-53
2021/07/11 03:29:39;;;;;;;0.80;0.40;;;22.70;74.70;;;22.07;56.01;100122.44;4989341;28;20038;-48
2021/07/11 03:32:08;;;;;;;2.83;0.40;;;22.70;75.40;;;21.66;58.06;100117.09;5009267;28;20037;-54
2021/07/11 03:34:34;;;;;;;4.22;0.68;;;22.40;77.10;;;21.49;58.01;100115.06;5008201;28;20042;-52
2021/07/11 03:37:09;;;;;;;1.50;0.47;;;22.20;78.00;;;21.39;58.61;100114.78;5009465;28;20334;-53
2021/07/11 03:39:42;;;;;;;;;;;22.00;78.70;;;21.28;60.52;100123.47;5018229;28;20057;-49
2021/07/11 03:42:13;;;;;;;1.80;0.70;;;22.00;80.80;;;21.11;59.75;100117.16;5029044;28;20019;-54
2021/07/11 03:44:42;;;;;;;1.70;0.50;;;21.80;81.10;;;21.07;59.91;100124.72;5009074;28;20080;-51
2021/07/11 03:47:11;;;;;;;2.75;0.50;;;21.70;81.80;;;21.10;59.82;100123.47;4991703;28;20030;-51
2021/07/11 03:49:39;;;;;;;1.40;0.40;;;21.70;82.40;;;21.10;59.81;100123.47;5006468;28;20038;-49
2021/07/11 03:52:07;;;;;;;0.73;0.57;;;21.70;83.20;;;21.04;60.19;100137.59;5008992;28;20065;-50
2021/07/11 03:54:36;;;;;;;1.00;0.40;;;21.60;83.90;;;21.15;59.69;100126.28;5009900;28;20562;-50
2021/07/11 03:57:03;;;;;;;2.80;0.55;;;21.70;84.20;;;21.22;59.71;100136.84;4991155;28;20108;-51
2021/07/11 03:59:32;;;;;;;4.72;0.40;;;21.80;84.60;;;21.17;60.45;100129.53;5021327;28;20030;-51
2021/07/11 04:02:01;;;;;;;4.05;0.68;;;21.70;85.30;;;21.17;60.21;100132.97;5027552;28;20048;-51
2021/07/11 04:04:30;;;;;;;1.27;0.60;;;21.80;85.70;;;21.15;60.20;100134.22;5007505;28;20103;-52
2021/07/11 04:06:57;;;;;;;4.40;0.50;;;21.70;86.40;;;21.15;60.00;100139.53;5010497;28;20140;-55
2021/07/11 04:09:25;;;;;;;3.53;0.50;;;21.70;86.70;;;21.28;59.68;100141.22;5027806;28;20029;-49
2021/07/11 04:11:52;;;;;;;1.63;0.50;;;21.80;87.10;;;21.56;58.93;100151.28;5010533;28;20052;-47
2021/07/11 04:14:21;;;;;;;5.40;0.43;;;22.00;87.30;;;22.67;56.57;100148.00;5023049;28;20551;-48
2021/07/11 04:17:04;;;;;;;1.77;0.47;;;23.20;83.70;;;22.99;55.27;100145.78;5028413;28;20037;-51
2021/07/11 04:19:36;;;;;;;2.88;0.50;;;23.90;80.00;;;23.64;53.60;100138.31;5026047;28;20156;-50
2021/07/11 04:22:05;;;;;;;4.85;0.50;;;24.60;77.20;;;23.69;53.96;100134.94;5028047;28;20120;-50
2021/07/11 04:24:35;;;;;;;1.00;0.40;;;25.30;74.80;;;24.41;51.76;100138.59;5015813;28;20164;-48
2021/07/11 04:27:03;;;;;;;2.60;0.50;;;25.70;73.40;;;25.14;50.31;100137.50;5008735;28;20045;-52
2021/07/11 04:29:33;;;;;;;1.90;0.60;;;26.70;70.30;;;26.02;48.15;100130.16;5014253;28;20561;-50
2021/07/11 04:32:01;;;;;;;3.25;0.40;;;27.80;67.20;;;26.92;45.93;100141.75;5010758;28;20045;-50
2021/07/11 04:34:34;;;;;;;0.88;0.40;;;28.90;64.10;;;27.74;44.11;100132.19;5022905;28;20073;-50
2021/07/11 04:37:04;;;;;;;2.10;0.30;;;30.10;61.20;;;28.26;42.75;100129.28;5008374;28;20041;-53
2021/07/11 04:39:30;;;;;;;1.70;0.50;;;30.70;58.60;;;29.23;40.79;100142.44;5017671;28;20119;-55
2021/07/11 04:41:56;;;;;;;1.50;0.38;;;31.50;56.90;;;30.60;38.09;100139.59;5027109;28;20041;-50
2021/07/11 04:44:25;;;;;;;1.95;0.38;;;32.50;55.20;;;31.28;36.42;100133.97;5015854;28;20490;-49
2021/07/11 04:46:51;;;;;;;0.68;0.30;;;33.20;53.20;;;31.41;35.86;100139.72;5009915;28;20140;-51
2021/07/11 04:49:17;;;;;;;2.15;0.40;;;33.60;51.80;;;31.93;34.80;100136.81;5025114;28;20116;-48
2021/07/11 04:51:44;;;;;;;1.08;0.32;;;34.00;51.00;;;31.20;36.07;100147.25;5024710;28;20057;-49
2021/07/11 04:54:10;;;;;;;1.55;0.30;;;34.20;49.60;;;29.88;38.12;100143.13;5025790;28;20217;-51
2021/07/11 04:56:39;;;;;;;2.05;0.30;;;33.30;50.10;;;30.40;37.30;100153.19;5025880;28;20056;-50
2021/07/11 04:59:05;;;;;;;1.55;0.20;;;33.10;50.80;;;30.59;36.94;100150.63;5024609;28;20040;-52
2021/07/11 05:01:34;;;;;;;1.27;0.20;;;33.80;49.10;;;30.58;36.79;100143.66;5024408;28;20217;-51
2021/07/11 05:04:01;;;;;;;2.55;0.30;;;34.10;48.60;;;30.69;36.80;100143.28;5023191;28;20551;-48
2021/07/11 05:06:27;;;;;;;0.90;0.40;;;34.00;48.70;;;31.12;35.96;100143.31;5026587;28;20111;-49
2021/07/11 05:08:52;;;;;;;0.50;0.22;;;34.20;48.20;;;31.56;35.07;100134.13;5027089;28;20137;-48
2021/07/11 05:11:21;;;;;;;2.65;0.35;;;34.00;48.60;;;30.95;35.86;100134.91;5027167;28;20065;-53
2021/07/11 05:13:47;;;;;;;1.30;0.25;;;34.00;48.60;;;31.09;35.40;100130.44;5026132;28;20052;-46
2021/07/11 05:16:13;;;;;;;1.95;0.22;;;33.90;48.60;;;31.68;34.61;100132.59;5022992;28;20033;-49
2021/07/11 05:18:39;;;;;;;2.42;0.30;;;33.90;48.70;;;32.33;33.64;100126.44;5026601;28;20034;-52
2021/07/11 05:21:06;;;;;;;0.63;0.20;;;34.60;47.80;;;32.49;32.97;100119.69;5025112;28;20531;-49
2021/07/11 05:23:31;;;;;;;3.38;0.30;;;34.80;47.00;;;32.00;33.67;100118.38;5027307;28;20065;-52
2021/07/11 05:25:57;;;;;;;2.63;0.30;;;34.90;46.90;;;32.15;33.44;100121.88;5018928;28;20038;-50
2021/07/11 05:28:23;;;;;;;0.65;0.30;;;35.30;46.10;;;33.61;31.01;100120.06;5012544;28;20072;-51
2021/07/11 05:30:49;;;;;;;0.60;0.30;;;36.10;45.10;;;34.18;30.25;100120.31;5022879;28;20108;-51
2021/07/11 05:33:18;;;;;;;1.70;0.30;;;37.30;43.90;;;34.19;30.48;100119.22;5026463;28;20036;-49
2021/07/11 05:35:43;;;;;;;0.52;0.30;;;37.80;42.80;;;35.06;29.19;100114.97;5021935;28;20420;-49
2021/07/11 05:38:09;;;;;;;3.20;0.20;;;38.30;42.70;;;35.33;28.74;100117.44;5025743;28;20048;-52
2021/07/11 05:40:35;;;;;;;1.90;0.20;;;38.80;41.90;;;35.43;28.81;100114.41;5024406;28;20037;-52
2021/07/11 05:43:01;;;;;;;3.03;0.30;;;39.10;41.60;;;35.32;28.90;100120.44;5025833;28;20044;-53
2021/07/11 05:45:27;;;;;;;0.43;0.20;;;39.40;40.70;;;35.15;28.91;100118.47;4999225;28;20037;-53
2021/07/11 05:47:53;;;;;;;2.50;0.50;;;39.30;40.50;;;35.53;28.75;100126.81;5007422;28;20117;-52
2021/07/11 05:50:21;;;;;;;1.58;0.20;;;39.40;40.80;;;35.76;28.46;100124.75;5013094;28;20041;-55
2021/07/11 05:52:47;;;;;;;1.77;0.30;;;39.70;40.20;;;35.84;28.73;100124.75;5026214;28;20041;-54
2021/07/11 05:55:13;;;;;;;0.45;0.17;;;39.80;40.50;;;35.87;28.86;100118.69;5022297;28;20045;-55
2021/07/11 05:57:39;;;;;;;2.90;0.22;;;39.80;40.10;;;35.43;29.46;100121.75;5025312;28;20512;-51
2021/07/11 06:00:08;;;;;;;0.77;0.30;;;39.60;40.60;;;35.45;28.77;100130.31;5016690;28;20524;-53
2021/07/11 06:02:34;;;;;;;1.63;0.20;;;39.40;40.30;;;34.70;29.73;100128.69;5006821;28;20405;-53
2021/07/11 06:05:00;;;;;;;0.32;0.20;;;38.60;41.00;;;34.28;30.16;100120.88;5007016;28;20087;-53
2021/07/11 06:07:26;;;;;;;1.15;0.30;;;38.30;41.70;;;34.01;31.23;100125.66;5006829;28;20061;-54
2021/07/11 06:09:52;;;;;;;0.50;0.30;;;37.90;41.70;;;33.62;32.45;100133.28;5006675;28;20030;-53
2021/07/11 06:12:18;;;;;;;0.50;0.20;;;37.10;43.20;;;33.75;30.97;100133.53;5006899;28;20073;-51
2021/07/11 06:14:44;;;;;;;1.00;0.25;;;36.90;42.70;;;34.05;30.63;100132.81;5007078;28;20034;-49
2021/07/11 06:17:10;;;;;;;1.63;0.30;;;37.30;42.00;;;34.50;29.96;100138.94;5007183;28;20480;-47
2021/07/11 06:19:36;;;;;;;1.85;0.20;;;38.00;41.30;;;34.85;29.52;100144.53;5007264;28;20057;-48
2021/07/11 06:22:03;;;;;;;2.55;0.30;;;38.70;40.90;;;35.16;28.93;100139.81;5006875;28;20196;-47
2021/07/11 06:24:29;;;;;;;2.30;0.28;;;39.60;39.80;;;35.71;28.25;100139.25;5008674;28;20040;-49
2021/07/11 06:26:55;;;;;;;2.70;0.30;;;40.20;39.00;;;36.13;27.18;100139.53;5010512;28;20442;-52
2021/07/11 06:29:35;;;;;;;1.08;0.20;;;40.50;38.70;;;35.63;27.21;100148.16;5010348;28;20041;-51
2021/07/11 06:32:02;;;;;;;0.82;0.30;;;39.90;39.20;;;35.55;28.34;100155.19;5010721;28;20133;-50
2021/07/11 06:34:27;;;;;;;1.38;0.22;;;39.80;39.40;;;35.79;28.39;100162.06;4992363;28;20053;-53
2021/07/11 06:36:53;;;;;;;1.00;0.38;;;40.10;39.20;;;35.77;28.31;100161.56;5010589;28;20148;-52
2021/07/11 06:39:22;;;;;;;0.80;0.30;;;40.00;39.70;;;36.37;27.74;100166.94;5010472;28;20422;-52
2021/07/11 06:41:48;;;;;;;0.30;0.20;;;40.70;39.10;;;36.37;27.42;100171.56;5009818;28;20046;-51
2021/07/11 06:44:14;;;;;;;0.60;0.10;;;40.90;38.40;;;36.31;27.29;100170.16;5010306;28;20046;-52
2021/07/11 06:46:43;;;;;;;1.08;0.30;;;40.70;38.40;;;36.17;26.60;100170.31;5010007;28;20056;-51
2021/07/11 06:49:09;;;;;;;2.90;0.20;;;40.90;38.00;;;36.05;26.74;100167.44;5010446;28;20036;-48
2021/07/11 06:51:35;;;;;;;0.98;0.20;;;40.80;37.50;;;35.55;27.02;100173.34;5010193;28;20034;-47
2021/07/11 06:54:02;;;;;;;0.82;0.20;;;39.90;38.10;;;35.61;26.85;100163.94;5009767;28;20481;-48
2021/07/11 06:56:31;;;;;;;0.50;0.10;;;39.80;38.10;;;35.86;25.75;100168.59;5008940;28;20123;-49
2021/07/11 06:58:57;;;;;;;2.92;0.22;;;40.20;37.20;;;36.66;24.97;100165.38;5010148;28;20619;-52
2021/07/11 07:01:23;;;;;;;0.98;0.30;;;40.80;36.60;;;36.85;25.03;100161.19;5010280;28;20066;-51
2021/07/11 07:03:49;;;;;;;3.05;0.50;;;41.40;36.40;;;36.78;25.37;100151.97;5010099;28;20041;-47
2021/07/11 07:06:15;;;;;;;0.47;0.20;;;41.30;36.70;;;36.51;25.80;100140.38;5009891;28;20030;-52
2021/07/11 07:08:41;;;;;;;0.50;0.20;;;41.00;37.10;;;36.13;25.39;100134.09;5009837;28;20038;-49
2021/07/11 07:11:07;;;;;;;2.78;0.30;;;40.60;36.90;;;35.98;25.81;100134.59;5010028;28;20034;-48
2021/07/11 07:13:33;;;;;;;1.50;0.20;;;40.20;37.40;;;35.98;25.73;100138.13;5009798;28;20042;-51
2021/07/11 07:15:59;;;;;;;9.18;0.30;;;40.00;37.80;;;36.03;25.57;100145.28;5009878;28;20034;-46
2021/07/11 07:18:25;;;;;;;0.93;0.20;;;39.90;37.20;;;35.20;26.61;100135.38;5009611;28;20401;-52
2021/07/11 07:20:51;;;;;;;1.95;0.30;;;39.00;38.40;;;33.76;28.57;100135.94;5009908;28;20037;-52
2021/07/11 07:23:17;;;;;;;0.45;0.20;;;36.10;41.80;;;32.74;30.43;100128.38;5009541;28;20030;-52
2021/07/11 07:25:43;;;;;;;1.75;0.22;;;34.30;44.50;;;32.64;31.01;100142.84;5009953;28;20034;-47
2021/07/11 07:28:11;;;;;;;0.70;0.17;;;33.70;45.50;;;32.52;31.22;100140.66;5013478;28;20427;-50
2021/07/11 07:30:38;;;;;;;0.43;0.10;;;33.40;45.70;;;32.35;31.20;100137.75;5029362;28;20450;-47
2021/07/11 07:33:04;;;;;;;0.22;0.10;;;33.10;45.90;;;32.32;30.77;100141.03;5010299;28;20030;-52
2021/07/11 07:35:30;;;;;;;1.67;0.20;;;33.10;46.00;;;32.32;31.02;100136.44;5029309;28;20136;-47
2021/07/11 07:37:56;;;;;;;6.03;0.20;;;33.10;46.40;;;32.25;31.68;100129.81;5011168;28;20045;-50
2021/07/11 07:40:22;;;;;;;1.80;0.20;;;32.80;47.20;;;32.14;32.06;100133.78;5011339;28;20307;-50
2021/07/11 07:42:49;;;;;;;1.17;0.20;;;32.80;47.60;;;32.24;32.21;100130.94;5029347;28;20243;-50
2021/07/11 07:45:16;;;;;;;0.32;0.20;;;32.80;47.70;;;32.38;31.15;100130.97;5029299;28;20049;-48
2021/07/11 07:47:42;;;;;;;0.40;0.20;;;32.90;46.90;;;32.54;30.60;100132.28;5029260;28;20548;-52
2021/07/11 07:50:11;;;;;;;0.30;0.15;;;33.10;46.00;;;32.63;29.99;100136.66;5028708;28;20721;-52
2021/07/11 07:52:38;;;;;;;1.33;0.20;;;33.10;45.70;;;32.99;29.05;100130.63;5028709;28;20485;-52
2021/07/11 07:55:05;;;;;;;0.28;0.10;;;33.40;45.20;;;32.98;29.47;100126.31;5028739;28;20054;-52
2021/07/11 07:57:31;;;;;;;0.82;0.20;;;33.50;45.40;;;32.74;29.34;100128.38;5010815;28;20041;-49
2021/07/11 07:59:57;;;;;;;3.10;0.13;;;33.30;44.70;;;32.80;29.98;100128.00;5028743;28;20029;-51
2021/07/11 08:02:24;;;;;;;0.30;0.15;;;33.30;45.60;;;33.03;30.24;100128.91;5028826;28;20032;-52
2021/07/11 08:04:50;;;;;;;0.20;0.10;;;33.40;46.00;;;33.10;30.09;100129.28;5028963;28;20037;-49
2021/07/11 08:07:16;;;;;;;2.58;0.20;;;33.60;45.90;;;33.17;29.60;100121.56;5028673;28;20408;-48
2021/07/11 08:09:42;;;;;;;1.13;0.22;;;33.70;45.80;;;32.80;30.38;100125.31;5028708;28;20489;-49
2021/07/11 08:12:08;;;;;;;0.98;0.20;;;33.50;45.60;;;32.98;30.52;100115.53;5028586;28;20048;-50
2021/07/11 08:14:34;;;;;;;1.02;0.40;;;33.40;46.40;;;33.27;30.53;100113.28;5028395;28;20091;-50
2021/07/11 08:17:00;;;;;;;0.40;0.20;;;33.70;46.40;;;32.94;30.78;100114.53;5028425;28;20597;-47
2021/07/11 08:19:26;;;;;;;1.27;0.20;;;33.40;46.40;;;33.18;30.47;100119.66;5028137;28;20038;-47
2021/07/11 08:21:53;;;;;;;1.80;0.20;;;33.60;46.40;;;33.46;29.75;100112.34;5028287;28;20222;-48
2021/07/11 08:24:25;;;;;;;1.02;0.43;;;33.80;46.20;;;33.40;29.93;100108.16;5026838;28;20147;-47
2021/07/11 08:26:51;;;;;;;1.17;0.38;;;33.90;46.10;;;33.48;29.91;100116.34;5028261;28;20034;-47
2021/07/11 08:29:17;;;;;;;0.20;0.10;;;33.90;46.00;;;33.32;30.05;100112.38;5028156;28;20111;-47
2021/07/11 08:31:43;;;;;;;2.38;0.20;;;33.80;46.00;;;33.50;29.55;100110.63;5027984;28;20052;-47
2021/07/11 08:34:09;;;;;;;0.73;0.25;;;33.80;45.60;;;33.74;29.58;100104.91;5026453;28;20469;-49
2021/07/11 08:36:35;;;;;;;0.73;0.30;;;34.00;45.80;;;33.54;28.45;100103.53;5028371;28;20068;-48
2021/07/11 08:39:02;;;;;;;0.47;0.20;;;34.00;44.90;;;33.56;28.96;100101.28;5027993;28;20052;-49
2021/07/11 08:41:28;;;;;;;0.70;0.20;;;33.90;45.20;;;33.84;28.41;100107.41;5027904;28;20033;-48
2021/07/11 08:43:55;;;;;;;0.75;0.20;;;34.10;45.30;;;33.85;28.88;100106.31;5028140;28;20040;-48
2021/07/11 08:46:22;;;;;;;1.70;0.20;;;34.20;45.00;;;33.87;28.33;100096.78;5027302;28;20065;-49
2021/07/11 08:48:49;;;;;;;1.52;0.20;;;34.30;44.60;;;34.17;28.05;100097.91;5027886;28;20511;-53
2021/07/11 08:51:16;;;;;;;1.55;0.20;;;34.50;44.60;;;34.45;28.02;100100.47;5026544;28;20026;-53
2021/07/11 08:53:46;;;;;;;0.52;0.25;;;34.70;44.60;;;33.96;27.69;100094.16;5027236;28;20060;-52
2021/07/11 08:56:25;;;;;;;0.77;0.20;;;34.50;44.00;;;33.63;28.47;100093.56;5027785;28;20041;-48
2021/07/11 08:58:55;;;;;;;2.40;0.20;;;34.20;44.30;;;34.35;27.52;100092.63;5027790;28;20473;-47
2021/07/11 09:01:27;;;;;;;2.45;0.50;;;34.50;44.30;;;34.55;26.50;100102.84;5027583;28;20037;-48
2021/07/11 09:04:07;;;;;;;0.50;0.20;;;34.80;43.50;;;34.32;26.77;100094.03;5027543;28;20068;-49
2021/07/11 09:06:51;;;;;;;1.48;0.20;;;34.80;43.40;;;34.72;27.71;100081.28;5009752;28;20033;-50
2021/07/11 09:09:30;;;;;;;1.13;0.30;;;35.00;44.50;;;34.75;27.45;100082.56;5025916;28;20594;-51
2021/07/11 09:12:18;;;;;;;1.13;0.30;;;35.20;44.00;;;34.21;28.08;100082.66;5027313;28;20452;-50
2021/07/11 09:14:44;;;;;;;1.20;0.20;;;34.90;44.10;;;33.22;29.68;100086.38;5009693;28;20033;-51
2021/07/11 09:17:13;;;;;;;2.67;0.45;;;34.00;45.10;;;33.52;28.97;100092.22;5027636;28;20444;-51
2021/07/11 09:19:48;;;;;;;1.67;0.30;;;33.90;45.00;;;32.94;29.95;100090.25;5027372;28;20034;-53
2021/07/11 09:22:31;;;;;;;;;;;33.60;45.30;;;33.94;27.59;100093.66;5009707;28;20030;-53
2021/07/11 09:25:01;;;;;;;6.10;0.82;;;34.00;44.60;;;34.50;27.29;100094.91;5027233;28;19939;-51
2021/07/11 09:27:33;;;;;;;1.85;0.30;;;34.60;44.20;;;34.92;26.59;100098.88;5026938;28;20045;-51
2021/07/11 09:30:10;;;;;;;1.23;0.30;;;35.00;43.70;;;34.90;27.17;100091.06;5027116;28;20029;-53
2021/07/11 09:32:37;;;;;;;2.72;0.68;;;35.20;44.00;;;35.52;26.64;100100.84;5026839;28;20040;-48
2021/07/11 09:35:14;;;;;;;2.47;0.40;;;35.50;43.80;;;35.44;26.08;100096.25;5026533;28;20075;-49
2021/07/11 09:37:44;;;;;;;1.00;0.40;;;35.60;43.30;;;34.63;27.15;100104.00;5027213;28;20034;-51
2021/07/11 09:40:13;;;;;;;3.50;1.20;;;35.30;43.30;;;34.04;27.60;100092.56;5027528;28;20056;-52
2021/07/11 09:42:42;;;;;;;2.30;0.80;;;34.60;44.00;;;34.28;27.62;100093.81;5026691;28;20037;-51
2021/07/11 09:45:20;;;;;;;2.00;0.40;;;34.60;44.10;;;35.11;26.96;100098.56;5027258;28;20083;-51
2021/07/11 09:48:11;;;;;;;1.38;0.40;;;35.00;44.20;;;35.62;25.82;100097.81;5027025;28;20074;-52
2021/07/11 09:50:37;;;;;;;2.20;0.50;;;35.70;43.60;;;35.39;26.25;100097.19;5026597;28;20155;-51
2021/07/11 09:53:06;;;;;;;3.50;0.60;;;35.80;43.20;;;35.36;26.66;100097.03;5026770;28;20029;-53
2021/07/11 09:55:35;;;;;;;3.53;0.40;;;35.60;43.60;;;35.72;26.22;100092.06;5008912;28;20084;-54
2021/07/11 09:58:08;;;;;;;1.23;0.50;;;35.90;43.10;;;35.63;25.62;100093.97;5026771;28;20487;-51
2021/07/11 10:00:41;;;;;;;1.77;0.75;;;36.00;42.60;;;35.17;26.65;100089.97;5012372;28;20029;-52
2021/07/11 10:03:13;;;;;;;1.20;0.75;;;35.70;42.90;;;34.53;26.90;100089.66;5030855;28;20221;-54
2021/07/11 10:05:44;;;;;;;1.88;0.95;;;35.20;43.20;;;35.03;26.56;100080.41;5012774;28;20103;-52
2021/07/11 10:08:10;;;;;;;1.00;0.85;;;35.30;43.30;;;35.14;26.28;100082.50;5030511;28;20037;-55
2021/07/11 10:10:39;;;;;;;1.02;0.60;;;35.40;43.10;;;35.36;26.00;100088.91;5030775;28;20049;-52
2021/07/11 10:13:07;;;;;;;4.10;0.73;;;35.60;42.90;;;35.40;25.83;100085.25;5030673;28;20044;-53
2021/07/11 10:15:37;;;;;;;2.65;0.80;;;35.70;42.60;;;35.16;26.44;100082.19;5030544;28;20029;-52
2021/07/11 10:18:13;;;;;;;1.10;0.85;;;35.50;43.10;;;34.65;26.71;100086.34;5031147;28;20029;-54